Decoded Metar for KVTA (NEWARK in OH, USA) (IATA:VTA) | Meteo·Mobile Aviation Weather
aviador You're here:

KVTA Decoded Metar

NEWARK in OH, USA
Report Time2018-09-21 03:54:00
UTC Time2018-09-21 04:25:51
Flight Rules vfr VFR
Wind160° at 03 kt
W.Decomp.*RWY 09: 0.7 kt HW 2.9 kt RCW
W.Rank160° ranks 18
Current wind is below 160° avg. (5.7)
Visibility9999 m
Phenomena:N/A
Clouds:N/A
Expected CloudBase > 800 ft AGL from Temp-Dew spread
CeilingNone
Temp24°C (ISA +11)
Dew Point22°C (89% RH)
QNH1017 hPa
Density Alt2,343 ft
Elevation879 ft
Report Wrong Elevation
Raw Report
KVTA 210354Z AUTO 16003KT 10SM CLR 24/22 A3003 RMK AO2 SLP161
T02390217=

Extra information for KVTA:More info

Metar Taf Metar & Taf Last 4 Metars F.Rules Stats Wind Profile Meteogram Temp Stats Airport Information Weather charts Add Link Nearby VenuesMetar ALERT Operation Metar Decoded Social comments

AIRNAV info for KVTA